sensor_id;sensor_type;location;lat;lon;timestamp;P1;durP1;ratioP1;P2;durP2;ratioP2
9449;SDS011;4763;48.370;10.874;2023-08-24T00:01:14;14.82;;;7.25;;
9449;SDS011;4763;48.370;10.874;2023-08-24T00:03:41;5.75;;;4.07;;
9449;SDS011;4763;48.370;10.874;2023-08-24T00:06:09;5.00;;;4.50;;
9449;SDS011;4763;48.370;10.874;2023-08-24T00:08:36;6.53;;;4.68;;
9449;SDS011;4763;48.370;10.874;2023-08-24T00:11:03;5.15;;;4.60;;
9449;SDS011;4763;48.370;10.874;2023-08-24T00:13:30;7.05;;;4.85;;
9449;SDS011;4763;48.370;10.874;2023-08-24T00:15:57;4.97;;;4.18;;
9449;SDS011;4763;48.370;10.874;2023-08-24T00:18:25;6.30;;;4.13;;
9449;SDS011;4763;48.370;10.874;2023-08-24T00:20:52;6.68;;;4.22;;
9449;SDS011;4763;48.370;10.874;2023-08-24T00:23:19;5.90;;;4.53;;
9449;SDS011;4763;48.370;10.874;2023-08-24T00:25:45;6.35;;;5.03;;
9449;SDS011;4763;48.370;10.874;2023-08-24T00:28:12;8.38;;;4.82;;
9449;SDS011;4763;48.370;10.874;2023-08-24T00:30:39;6.05;;;4.75;;
9449;SDS011;4763;48.370;10.874;2023-08-24T00:33:06;5.93;;;4.60;;
9449;SDS011;4763;48.370;10.874;2023-08-24T00:35:34;4.78;;;4.22;;
9449;SDS011;4763;48.370;10.874;2023-08-24T00:38:00;4.90;;;4.40;;
9449;SDS011;4763;48.370;10.874;2023-08-24T00:40:27;5.25;;;4.25;;
9449;SDS011;4763;48.370;10.874;2023-08-24T00:42:54;5.93;;;4.18;;
9449;SDS011;4763;48.370;10.874;2023-08-24T00:45:21;5.25;;;4.75;;
9449;SDS011;4763;48.370;10.874;2023-08-24T00:47:47;4.60;;;4.13;;
9449;SDS011;4763;48.370;10.874;2023-08-24T00:50:15;6.25;;;4.18;;
9449;SDS011;4763;48.370;10.874;2023-08-24T00:52:43;7.75;;;4.57;;
9449;SDS011;4763;48.370;10.874;2023-08-24T00:55:12;5.90;;;4.53;;
9449;SDS011;4763;48.370;10.874;2023-08-24T00:57:40;5.85;;;5.00;;
9449;SDS011;4763;48.370;10.874;2023-08-24T01:00:07;5.25;;;4.60;;
9449;SDS011;4763;48.370;10.874;2023-08-24T01:02:35;5.53;;;4.20;;
9449;SDS011;4763;48.370;10.874;2023-08-24T01:05:02;5.95;;;4.10;;
9449;SDS011;4763;48.370;10.874;2023-08-24T01:07:30;5.20;;;4.55;;
9449;SDS011;4763;48.370;10.874;2023-08-24T01:09:59;5.18;;;4.68;;
9449;SDS011;4763;48.370;10.874;2023-08-24T01:12:27;4.85;;;4.28;;
9449;SDS011;4763;48.370;10.874;2023-08-24T01:15:00;6.38;;;4.63;;
9449;SDS011;4763;48.370;10.874;2023-08-24T01:17:33;7.07;;;4.80;;
9449;SDS011;4763;48.370;10.874;2023-08-24T01:20:02;10.23;;;4.38;;
9449;SDS011;4763;48.370;10.874;2023-08-24T01:22:33;6.20;;;4.40;;
9449;SDS011;4763;48.370;10.874;2023-08-24T01:25:06;6.03;;;4.30;;
9449;SDS011;4763;48.370;10.874;2023-08-24T01:27:42;5.22;;;4.18;;
9449;SDS011;4763;48.370;10.874;2023-08-24T01:30:10;4.15;;;3.72;;
9449;SDS011;4763;48.370;10.874;2023-08-24T01:32:37;5.82;;;5.22;;
9449;SDS011;4763;48.370;10.874;2023-08-24T01:35:05;5.68;;;4.15;;
9449;SDS011;4763;48.370;10.874;2023-08-24T01:37:34;6.53;;;4.25;;
9449;SDS011;4763;48.370;10.874;2023-08-24T01:40:03;5.45;;;4.43;;
9449;SDS011;4763;48.370;10.874;2023-08-24T01:42:35;6.30;;;4.53;;
9449;SDS011;4763;48.370;10.874;2023-08-24T01:45:05;5.65;;;4.88;;
9449;SDS011;4763;48.370;10.874;2023-08-24T01:47:33;5.93;;;4.53;;
9449;SDS011;4763;48.370;10.874;2023-08-24T01:50:01;13.18;;;4.82;;
9449;SDS011;4763;48.370;10.874;2023-08-24T01:52:29;5.38;;;4.88;;
9449;SDS011;4763;48.370;10.874;2023-08-24T01:54:57;5.85;;;4.82;;
9449;SDS011;4763;48.370;10.874;2023-08-24T01:57:24;5.97;;;4.38;;
9449;SDS011;4763;48.370;10.874;2023-08-24T01:59:51;4.80;;;4.03;;
9449;SDS011;4763;48.370;10.874;2023-08-24T02:02:20;6.95;;;5.65;;
9449;SDS011;4763;48.370;10.874;2023-08-24T02:04:47;4.88;;;4.30;;
9449;SDS011;4763;48.370;10.874;2023-08-24T02:07:14;6.07;;;4.57;;
9449;SDS011;4763;48.370;10.874;2023-08-24T02:09:40;8.43;;;4.88;;
9449;SDS011;4763;48.370;10.874;2023-08-24T02:12:07;5.07;;;4.57;;
9449;SDS011;4763;48.370;10.874;2023-08-24T02:14:34;5.32;;;4.30;;
9449;SDS011;4763;48.370;10.874;2023-08-24T02:17:01;5.85;;;5.03;;
9449;SDS011;4763;48.370;10.874;2023-08-24T02:19:29;7.85;;;4.80;;
9449;SDS011;4763;48.370;10.874;2023-08-24T02:21:56;6.50;;;4.32;;
9449;SDS011;4763;48.370;10.874;2023-08-24T02:24:23;5.82;;;4.82;;
9449;SDS011;4763;48.370;10.874;2023-08-24T02:26:50;5.00;;;4.50;;
9449;SDS011;4763;48.370;10.874;2023-08-24T02:29:17;5.80;;;4.30;;
9449;SDS011;4763;48.370;10.874;2023-08-24T02:31:44;5.78;;;4.43;;
9449;SDS011;4763;48.370;10.874;2023-08-24T02:34:10;5.68;;;5.07;;
9449;SDS011;4763;48.370;10.874;2023-08-24T02:36:38;5.78;;;5.03;;
9449;SDS011;4763;48.370;10.874;2023-08-24T02:39:05;4.90;;;4.13;;
9449;SDS011;4763;48.370;10.874;2023-08-24T02:41:33;5.13;;;4.45;;
9449;SDS011;4763;48.370;10.874;2023-08-24T02:44:00;5.20;;;4.70;;
9449;SDS011;4763;48.370;10.874;2023-08-24T02:46:27;5.60;;;4.30;;
9449;SDS011;4763;48.370;10.874;2023-08-24T02:48:54;6.13;;;4.80;;
9449;SDS011;4763;48.370;10.874;2023-08-24T02:51:21;7.90;;;4.75;;
9449;SDS011;4763;48.370;10.874;2023-08-24T02:53:50;7.10;;;5.10;;
9449;SDS011;4763;48.370;10.874;2023-08-24T02:56:16;6.50;;;4.85;;
9449;SDS011;4763;48.370;10.874;2023-08-24T02:58:43;5.80;;;4.75;;
9449;SDS011;4763;48.370;10.874;2023-08-24T03:01:10;8.65;;;4.85;;
9449;SDS011;4763;48.370;10.874;2023-08-24T03:03:37;7.28;;;4.45;;
9449;SDS011;4763;48.370;10.874;2023-08-24T03:06:04;5.32;;;4.78;;
9449;SDS011;4763;48.370;10.874;2023-08-24T03:08:32;5.30;;;4.65;;
9449;SDS011;4763;48.370;10.874;2023-08-24T03:11:01;5.38;;;4.88;;
9449;SDS011;4763;48.370;10.874;2023-08-24T03:13:28;9.18;;;5.15;;
9449;SDS011;4763;48.370;10.874;2023-08-24T03:15:56;8.57;;;4.97;;
9449;SDS011;4763;48.370;10.874;2023-08-24T03:18:23;8.70;;;5.32;;
9449;SDS011;4763;48.370;10.874;2023-08-24T03:20:50;6.00;;;5.32;;
9449;SDS011;4763;48.370;10.874;2023-08-24T03:23:16;7.95;;;5.32;;
9449;SDS011;4763;48.370;10.874;2023-08-24T03:25:43;8.10;;;5.07;;
9449;SDS011;4763;48.370;10.874;2023-08-24T03:28:11;6.35;;;5.07;;
9449;SDS011;4763;48.370;10.874;2023-08-24T03:30:38;6.93;;;5.18;;
9449;SDS011;4763;48.370;10.874;2023-08-24T03:33:14;6.85;;;6.10;;
9449;SDS011;4763;48.370;10.874;2023-08-24T03:35:41;6.15;;;5.00;;
9449;SDS011;4763;48.370;10.874;2023-08-24T03:38:08;6.55;;;5.22;;
9449;SDS011;4763;48.370;10.874;2023-08-24T03:40:35;7.82;;;5.75;;
9449;SDS011;4763;48.370;10.874;2023-08-24T03:43:02;7.28;;;5.53;;
9449;SDS011;4763;48.370;10.874;2023-08-24T03:45:31;7.32;;;4.95;;
9449;SDS011;4763;48.370;10.874;2023-08-24T03:47:57;5.13;;;4.65;;
9449;SDS011;4763;48.370;10.874;2023-08-24T03:50:24;6.65;;;5.03;;
9449;SDS011;4763;48.370;10.874;2023-08-24T03:52:51;6.78;;;5.00;;
9449;SDS011;4763;48.370;10.874;2023-08-24T03:55:19;8.52;;;5.75;;
9449;SDS011;4763;48.370;10.874;2023-08-24T03:57:46;6.47;;;5.18;;
9449;SDS011;4763;48.370;10.874;2023-08-24T04:00:13;8.27;;;5.13;;
9449;SDS011;4763;48.370;10.874;2023-08-24T04:02:43;8.70;;;5.78;;
9449;SDS011;4763;48.370;10.874;2023-08-24T04:05:10;7.47;;;5.07;;
9449;SDS011;4763;48.370;10.874;2023-08-24T04:07:37;5.43;;;4.93;;
9449;SDS011;4763;48.370;10.874;2023-08-24T04:10:06;7.03;;;5.75;;
9449;SDS011;4763;48.370;10.874;2023-08-24T04:12:33;6.82;;;5.57;;
9449;SDS011;4763;48.370;10.874;2023-08-24T04:15:01;8.25;;;4.85;;
9449;SDS011;4763;48.370;10.874;2023-08-24T04:17:27;9.05;;;5.90;;
9449;SDS011;4763;48.370;10.874;2023-08-24T04:19:56;5.90;;;5.10;;
9449;SDS011;4763;48.370;10.874;2023-08-24T04:22:22;8.05;;;5.55;;
9449;SDS011;4763;48.370;10.874;2023-08-24T04:24:49;6.45;;;5.78;;
9449;SDS011;4763;48.370;10.874;2023-08-24T04:27:16;6.82;;;5.32;;
9449;SDS011;4763;48.370;10.874;2023-08-24T04:29:42;7.82;;;6.05;;
9449;SDS011;4763;48.370;10.874;2023-08-24T04:32:09;7.05;;;5.53;;
9449;SDS011;4763;48.370;10.874;2023-08-24T04:34:36;10.82;;;5.72;;
9449;SDS011;4763;48.370;10.874;2023-08-24T04:37:05;8.10;;;5.75;;
9449;SDS011;4763;48.370;10.874;2023-08-24T04:39:32;7.35;;;5.13;;
9449;SDS011;4763;48.370;10.874;2023-08-24T04:41:59;7.55;;;6.00;;
9449;SDS011;4763;48.370;10.874;2023-08-24T04:44:25;6.68;;;5.65;;
9449;SDS011;4763;48.370;10.874;2023-08-24T04:46:52;7.90;;;5.70;;
9449;SDS011;4763;48.370;10.874;2023-08-24T04:49:19;6.38;;;5.38;;
9449;SDS011;4763;48.370;10.874;2023-08-24T04:51:46;7.22;;;6.10;;
9449;SDS011;4763;48.370;10.874;2023-08-24T04:54:14;8.93;;;5.45;;
9449;SDS011;4763;48.370;10.874;2023-08-24T04:56:41;6.38;;;5.55;;
9449;SDS011;4763;48.370;10.874;2023-08-24T04:59:08;5.72;;;5.00;;
9449;SDS011;4763;48.370;10.874;2023-08-24T05:01:35;6.78;;;5.88;;
9449;SDS011;4763;48.370;10.874;2023-08-24T05:04:02;8.10;;;6.03;;
9449;SDS011;4763;48.370;10.874;2023-08-24T05:06:29;7.88;;;5.43;;
9449;SDS011;4763;48.370;10.874;2023-08-24T05:08:56;8.48;;;7.57;;
9449;SDS011;4763;48.370;10.874;2023-08-24T05:11:26;12.65;;;6.47;;
9449;SDS011;4763;48.370;10.874;2023-08-24T05:13:54;10.02;;;6.93;;
9449;SDS011;4763;48.370;10.874;2023-08-24T05:16:21;8.68;;;6.88;;
9449;SDS011;4763;48.370;10.874;2023-08-24T05:18:48;8.57;;;6.05;;
9449;SDS011;4763;48.370;10.874;2023-08-24T05:21:15;11.52;;;6.45;;
9449;SDS011;4763;48.370;10.874;2023-08-24T05:23:41;10.50;;;7.10;;
9449;SDS011;4763;48.370;10.874;2023-08-24T05:26:08;8.98;;;5.85;;
9449;SDS011;4763;48.370;10.874;2023-08-24T05:28:36;7.38;;;5.82;;
9449;SDS011;4763;48.370;10.874;2023-08-24T05:31:03;8.52;;;6.55;;
9449;SDS011;4763;48.370;10.874;2023-08-24T05:33:29;8.85;;;7.25;;
9449;SDS011;4763;48.370;10.874;2023-08-24T05:35:58;9.02;;;7.03;;
9449;SDS011;4763;48.370;10.874;2023-08-24T05:38:25;8.05;;;7.13;;
9449;SDS011;4763;48.370;10.874;2023-08-24T05:40:51;10.25;;;6.60;;
9449;SDS011;4763;48.370;10.874;2023-08-24T05:43:18;8.27;;;7.05;;
9449;SDS011;4763;48.370;10.874;2023-08-24T05:45:47;20.73;;;7.68;;
9449;SDS011;4763;48.370;10.874;2023-08-24T05:48:14;9.27;;;7.40;;
9449;SDS011;4763;48.370;10.874;2023-08-24T05:50:42;8.07;;;6.68;;
9449;SDS011;4763;48.370;10.874;2023-08-24T05:53:10;9.13;;;7.10;;
9449;SDS011;4763;48.370;10.874;2023-08-24T05:55:37;8.07;;;6.40;;
9449;SDS011;4763;48.370;10.874;2023-08-24T05:58:04;7.80;;;6.53;;
9449;SDS011;4763;48.370;10.874;2023-08-24T06:00:31;9.77;;;6.45;;
9449;SDS011;4763;48.370;10.874;2023-08-24T06:02:59;6.53;;;5.57;;
9449;SDS011;4763;48.370;10.874;2023-08-24T06:05:26;9.77;;;6.43;;
9449;SDS011;4763;48.370;10.874;2023-08-24T06:07:53;8.50;;;6.40;;
9449;SDS011;4763;48.370;10.874;2023-08-24T06:10:20;9.25;;;6.20;;
9449;SDS011;4763;48.370;10.874;2023-08-24T06:12:47;8.90;;;6.00;;
9449;SDS011;4763;48.370;10.874;2023-08-24T06:15:13;14.55;;;6.07;;
9449;SDS011;4763;48.370;10.874;2023-08-24T06:17:41;8.02;;;5.75;;
9449;SDS011;4763;48.370;10.874;2023-08-24T06:20:10;9.18;;;5.78;;
9449;SDS011;4763;48.370;10.874;2023-08-24T06:22:37;11.63;;;6.03;;
9449;SDS011;4763;48.370;10.874;2023-08-24T06:25:05;6.03;;;5.43;;
9449;SDS011;4763;48.370;10.874;2023-08-24T06:27:33;7.32;;;5.43;;
9449;SDS011;4763;48.370;10.874;2023-08-24T06:30:01;7.63;;;5.97;;
9449;SDS011;4763;48.370;10.874;2023-08-24T06:32:28;7.60;;;5.43;;
9449;SDS011;4763;48.370;10.874;2023-08-24T06:34:55;10.88;;;6.65;;
9449;SDS011;4763;48.370;10.874;2023-08-24T06:37:23;11.73;;;6.07;;
9449;SDS011;4763;48.370;10.874;2023-08-24T06:39:50;8.80;;;5.57;;
9449;SDS011;4763;48.370;10.874;2023-08-24T06:42:17;7.03;;;5.03;;
9449;SDS011;4763;48.370;10.874;2023-08-24T06:44:44;11.07;;;4.97;;
9449;SDS011;4763;48.370;10.874;2023-08-24T06:47:10;7.00;;;4.63;;
9449;SDS011;4763;48.370;10.874;2023-08-24T06:49:37;8.05;;;4.57;;
9449;SDS011;4763;48.370;10.874;2023-08-24T06:52:04;8.40;;;5.07;;
9449;SDS011;4763;48.370;10.874;2023-08-24T06:54:32;6.55;;;4.80;;
9449;SDS011;4763;48.370;10.874;2023-08-24T07:00:32;7.97;;;4.90;;
9449;SDS011;4763;48.370;10.874;2023-08-24T07:03:04;8.40;;;4.13;;
9449;SDS011;4763;48.370;10.874;2023-08-24T07:05:31;6.20;;;4.60;;
9449;SDS011;4763;48.370;10.874;2023-08-24T07:07:59;9.35;;;4.63;;
9449;SDS011;4763;48.370;10.874;2023-08-24T07:10:28;7.65;;;4.50;;
9449;SDS011;4763;48.370;10.874;2023-08-24T07:12:58;6.50;;;4.85;;
9449;SDS011;4763;48.370;10.874;2023-08-24T07:15:27;8.15;;;4.28;;
9449;SDS011;4763;48.370;10.874;2023-08-24T07:18:16;11.65;;;5.30;;
9449;SDS011;4763;48.370;10.874;2023-08-24T07:24:01;6.50;;;4.50;;
9449;SDS011;4763;48.370;10.874;2023-08-24T07:26:39;6.47;;;4.70;;
9449;SDS011;4763;48.370;10.874;2023-08-24T07:29:15;9.52;;;4.32;;
9449;SDS011;4763;48.370;10.874;2023-08-24T07:31:42;8.13;;;4.80;;
9449;SDS011;4763;48.370;10.874;2023-08-24T07:34:13;8.40;;;4.25;;
9449;SDS011;4763;48.370;10.874;2023-08-24T07:36:41;7.97;;;5.47;;
9449;SDS011;4763;48.370;10.874;2023-08-24T07:39:25;7.30;;;5.28;;
9449;SDS011;4763;48.370;10.874;2023-08-24T07:41:55;9.05;;;5.10;;
9449;SDS011;4763;48.370;10.874;2023-08-24T07:44:22;7.88;;;4.93;;
9449;SDS011;4763;48.370;10.874;2023-08-24T07:46:49;6.78;;;5.35;;
9449;SDS011;4763;48.370;10.874;2023-08-24T07:49:16;9.88;;;6.07;;
9449;SDS011;4763;48.370;10.874;2023-08-24T07:51:43;10.10;;;5.18;;
9449;SDS011;4763;48.370;10.874;2023-08-24T07:54:12;7.43;;;5.10;;
9449;SDS011;4763;48.370;10.874;2023-08-24T07:56:39;6.70;;;5.30;;
9449;SDS011;4763;48.370;10.874;2023-08-24T07:59:07;6.50;;;4.82;;
9449;SDS011;4763;48.370;10.874;2023-08-24T08:01:34;6.30;;;5.30;;
9449;SDS011;4763;48.370;10.874;2023-08-24T08:04:01;5.43;;;4.93;;
9449;SDS011;4763;48.370;10.874;2023-08-24T08:06:28;5.82;;;5.22;;
9449;SDS011;4763;48.370;10.874;2023-08-24T08:08:54;12.70;;;5.28;;
9449;SDS011;4763;48.370;10.874;2023-08-24T08:11:22;6.13;;;5.10;;
9449;SDS011;4763;48.370;10.874;2023-08-24T08:20:13;7.35;;;5.50;;
9449;SDS011;4763;48.370;10.874;2023-08-24T08:22:41;6.72;;;4.97;;
9449;SDS011;4763;48.370;10.874;2023-08-24T08:25:08;9.52;;;5.15;;
9449;SDS011;4763;48.370;10.874;2023-08-24T08:27:34;7.57;;;4.70;;
9449;SDS011;4763;48.370;10.874;2023-08-24T08:30:01;12.00;;;5.40;;
9449;SDS011;4763;48.370;10.874;2023-08-24T08:32:30;8.93;;;5.65;;
9449;SDS011;4763;48.370;10.874;2023-08-24T08:34:56;10.23;;;5.47;;
9449;SDS011;4763;48.370;10.874;2023-08-24T08:37:26;5.45;;;4.95;;
9449;SDS011;4763;48.370;10.874;2023-08-24T08:39:53;5.43;;;4.93;;
9449;SDS011;4763;48.370;10.874;2023-08-24T08:42:20;8.93;;;5.22;;
9449;SDS011;4763;48.370;10.874;2023-08-24T08:44:47;6.50;;;5.10;;
9449;SDS011;4763;48.370;10.874;2023-08-24T08:47:15;10.27;;;5.47;;
9449;SDS011;4763;48.370;10.874;2023-08-24T08:49:44;7.82;;;6.13;;
9449;SDS011;4763;48.370;10.874;2023-08-24T08:52:14;7.15;;;5.85;;
9449;SDS011;4763;48.370;10.874;2023-08-24T08:54:42;7.38;;;5.25;;
9449;SDS011;4763;48.370;10.874;2023-08-24T08:57:09;10.63;;;5.50;;
9449;SDS011;4763;48.370;10.874;2023-08-24T08:59:36;8.77;;;5.65;;
9449;SDS011;4763;48.370;10.874;2023-08-24T09:02:04;8.52;;;5.85;;
9449;SDS011;4763;48.370;10.874;2023-08-24T09:04:32;8.63;;;5.70;;
9449;SDS011;4763;48.370;10.874;2023-08-24T09:06:59;9.68;;;6.03;;
9449;SDS011;4763;48.370;10.874;2023-08-24T09:09:29;10.98;;;5.45;;
9449;SDS011;4763;48.370;10.874;2023-08-24T09:11:57;7.47;;;5.57;;
9449;SDS011;4763;48.370;10.874;2023-08-24T09:14:26;10.75;;;5.60;;
9449;SDS011;4763;48.370;10.874;2023-08-24T09:16:52;11.80;;;5.78;;
9449;SDS011;4763;48.370;10.874;2023-08-24T09:19:19;9.98;;;6.90;;
9449;SDS011;4763;48.370;10.874;2023-08-24T09:21:56;12.02;;;6.07;;
9449;SDS011;4763;48.370;10.874;2023-08-24T09:24:28;8.93;;;5.68;;
9449;SDS011;4763;48.370;10.874;2023-08-24T09:26:58;6.50;;;5.90;;
9449;SDS011;4763;48.370;10.874;2023-08-24T09:29:25;6.20;;;5.28;;
9449;SDS011;4763;48.370;10.874;2023-08-24T09:31:53;11.48;;;6.93;;
9449;SDS011;4763;48.370;10.874;2023-08-24T09:34:20;7.90;;;6.05;;
9449;SDS011;4763;48.370;10.874;2023-08-24T09:36:51;8.15;;;5.78;;
9449;SDS011;4763;48.370;10.874;2023-08-24T09:39:19;7.05;;;5.53;;
9449;SDS011;4763;48.370;10.874;2023-08-24T09:41:48;8.48;;;5.80;;
9449;SDS011;4763;48.370;10.874;2023-08-24T09:44:17;9.82;;;6.07;;
9449;SDS011;4763;48.370;10.874;2023-08-24T09:46:44;11.90;;;6.63;;
9449;SDS011;4763;48.370;10.874;2023-08-24T09:49:12;8.90;;;5.88;;
9449;SDS011;4763;48.370;10.874;2023-08-24T09:51:39;5.95;;;5.07;;
9449;SDS011;4763;48.370;10.874;2023-08-24T09:54:07;8.65;;;5.70;;
9449;SDS011;4763;48.370;10.874;2023-08-24T09:56:36;10.90;;;6.22;;
9449;SDS011;4763;48.370;10.874;2023-08-24T09:59:06;7.72;;;5.38;;
9449;SDS011;4763;48.370;10.874;2023-08-24T10:01:42;5.78;;;5.28;;
9449;SDS011;4763;48.370;10.874;2023-08-24T10:04:12;12.95;;;6.32;;
9449;SDS011;4763;48.370;10.874;2023-08-24T10:06:40;10.25;;;5.57;;
9449;SDS011;4763;48.370;10.874;2023-08-24T10:09:11;9.90;;;5.65;;
9449;SDS011;4763;48.370;10.874;2023-08-24T10:11:47;12.85;;;5.80;;
9449;SDS011;4763;48.370;10.874;2023-08-24T10:14:19;7.93;;;5.65;;
9449;SDS011;4763;48.370;10.874;2023-08-24T10:16:52;9.07;;;5.50;;
9449;SDS011;4763;48.370;10.874;2023-08-24T10:19:20;8.48;;;5.97;;
9449;SDS011;4763;48.370;10.874;2023-08-24T10:21:48;5.57;;;4.90;;
9449;SDS011;4763;48.370;10.874;2023-08-24T10:24:17;9.40;;;5.40;;
9449;SDS011;4763;48.370;10.874;2023-08-24T10:26:46;5.82;;;5.22;;
9449;SDS011;4763;48.370;10.874;2023-08-24T10:29:13;8.77;;;5.38;;
9449;SDS011;4763;48.370;10.874;2023-08-24T10:31:42;7.80;;;5.40;;
9449;SDS011;4763;48.370;10.874;2023-08-24T10:34:11;10.75;;;4.68;;
9449;SDS011;4763;48.370;10.874;2023-08-24T10:36:38;6.18;;;4.88;;
9449;SDS011;4763;48.370;10.874;2023-08-24T10:39:05;4.90;;;4.50;;
9449;SDS011;4763;48.370;10.874;2023-08-24T10:41:48;7.68;;;4.88;;
9449;SDS011;4763;48.370;10.874;2023-08-24T10:44:19;5.40;;;4.43;;
9449;SDS011;4763;48.370;10.874;2023-08-24T10:47:07;5.43;;;4.68;;
9449;SDS011;4763;48.370;10.874;2023-08-24T10:49:38;4.78;;;3.90;;
9449;SDS011;4763;48.370;10.874;2023-08-24T10:52:18;8.05;;;4.82;;
9449;SDS011;4763;48.370;10.874;2023-08-24T10:54:47;6.50;;;3.60;;
9449;SDS011;4763;48.370;10.874;2023-08-24T10:57:22;5.90;;;3.92;;
9449;SDS011;4763;48.370;10.874;2023-08-24T11:00:05;9.57;;;4.28;;
9449;SDS011;4763;48.370;10.874;2023-08-24T11:02:44;7.97;;;4.40;;
9449;SDS011;4763;48.370;10.874;2023-08-24T11:05:20;5.55;;;3.85;;
9449;SDS011;4763;48.370;10.874;2023-08-24T11:07:50;6.15;;;3.30;;
9449;SDS011;4763;48.370;10.874;2023-08-24T11:10:22;7.97;;;3.65;;
9449;SDS011;4763;48.370;10.874;2023-08-24T11:13:05;3.97;;;3.50;;
9449;SDS011;4763;48.370;10.874;2023-08-24T11:15:33;6.63;;;3.47;;
9449;SDS011;4763;48.370;10.874;2023-08-24T11:18:12;7.60;;;3.45;;
9449;SDS011;4763;48.370;10.874;2023-08-24T11:20:43;4.47;;;3.60;;
9449;SDS011;4763;48.370;10.874;2023-08-24T11:23:11;6.93;;;3.42;;
9449;SDS011;4763;48.370;10.874;2023-08-24T11:25:41;6.95;;;3.70;;
9449;SDS011;4763;48.370;10.874;2023-08-24T11:28:08;4.50;;;3.42;;
9449;SDS011;4763;48.370;10.874;2023-08-24T11:30:35;7.32;;;3.83;;
9449;SDS011;4763;48.370;10.874;2023-08-24T11:33:02;3.47;;;3.17;;
9449;SDS011;4763;48.370;10.874;2023-08-24T11:35:29;9.00;;;3.58;;
9449;SDS011;4763;48.370;10.874;2023-08-24T11:38:02;5.50;;;3.75;;
9449;SDS011;4763;48.370;10.874;2023-08-24T11:40:29;3.75;;;3.40;;
9449;SDS011;4763;48.370;10.874;2023-08-24T11:42:56;9.23;;;3.38;;
9449;SDS011;4763;48.370;10.874;2023-08-24T11:45:23;20.13;;;17.50;;
9449;SDS011;4763;48.370;10.874;2023-08-24T11:47:55;14.45;;;8.85;;
9449;SDS011;4763;48.370;10.874;2023-08-24T11:50:24;7.07;;;6.35;;
9449;SDS011;4763;48.370;10.874;2023-08-24T11:52:52;8.20;;;4.35;;
9449;SDS011;4763;48.370;10.874;2023-08-24T11:55:21;7.05;;;3.53;;
9449;SDS011;4763;48.370;10.874;2023-08-24T11:57:49;18.10;;;4.15;;
9449;SDS011;4763;48.370;10.874;2023-08-24T12:00:17;7.35;;;4.00;;
9449;SDS011;4763;48.370;10.874;2023-08-24T12:02:45;6.78;;;3.60;;
9449;SDS011;4763;48.370;10.874;2023-08-24T12:05:20;5.38;;;3.63;;
9449;SDS011;4763;48.370;10.874;2023-08-24T12:07:48;5.57;;;3.60;;
9449;SDS011;4763;48.370;10.874;2023-08-24T12:10:15;3.45;;;3.00;;
9449;SDS011;4763;48.370;10.874;2023-08-24T12:12:43;14.52;;;4.30;;
9449;SDS011;4763;48.370;10.874;2023-08-24T12:15:17;7.88;;;3.50;;
9449;SDS011;4763;48.370;10.874;2023-08-24T12:17:45;4.05;;;3.42;;
9449;SDS011;4763;48.370;10.874;2023-08-24T12:20:18;7.88;;;3.35;;
9449;SDS011;4763;48.370;10.874;2023-08-24T12:22:50;7.00;;;3.80;;
9449;SDS011;4763;48.370;10.874;2023-08-24T12:25:17;8.02;;;3.85;;
9449;SDS011;4763;48.370;10.874;2023-08-24T12:27:49;4.65;;;3.50;;
9449;SDS011;4763;48.370;10.874;2023-08-24T12:30:16;4.70;;;3.42;;
9449;SDS011;4763;48.370;10.874;2023-08-24T12:32:43;6.45;;;3.70;;
9449;SDS011;4763;48.370;10.874;2023-08-24T12:35:15;7.75;;;3.63;;
9449;SDS011;4763;48.370;10.874;2023-08-24T12:37:42;8.55;;;3.42;;
9449;SDS011;4763;48.370;10.874;2023-08-24T12:40:09;13.10;;;4.03;;
9449;SDS011;4763;48.370;10.874;2023-08-24T12:42:36;7.35;;;3.70;;
9449;SDS011;4763;48.370;10.874;2023-08-24T12:45:06;11.25;;;4.07;;
9449;SDS011;4763;48.370;10.874;2023-08-24T12:47:33;6.38;;;3.75;;
9449;SDS011;4763;48.370;10.874;2023-08-24T12:50:03;4.07;;;3.30;;
9449;SDS011;4763;48.370;10.874;2023-08-24T12:52:31;11.85;;;3.72;;
9449;SDS011;4763;48.370;10.874;2023-08-24T12:54:59;7.88;;;3.35;;
9449;SDS011;4763;48.370;10.874;2023-08-24T12:57:25;5.85;;;3.08;;
9449;SDS011;4763;48.370;10.874;2023-08-24T12:59:52;6.00;;;3.38;;
9449;SDS011;4763;48.370;10.874;2023-08-24T13:02:21;6.80;;;3.80;;
9449;SDS011;4763;48.370;10.874;2023-08-24T13:04:47;5.43;;;3.83;;
9449;SDS011;4763;48.370;10.874;2023-08-24T13:07:14;10.40;;;4.03;;
9449;SDS011;4763;48.370;10.874;2023-08-24T13:09:41;9.15;;;3.60;;
9449;SDS011;4763;48.370;10.874;2023-08-24T13:12:08;5.65;;;3.58;;
9449;SDS011;4763;48.370;10.874;2023-08-24T13:14:34;6.20;;;3.38;;
9449;SDS011;4763;48.370;10.874;2023-08-24T13:17:01;5.68;;;3.50;;
9449;SDS011;4763;48.370;10.874;2023-08-24T13:19:30;3.45;;;3.15;;
9449;SDS011;4763;48.370;10.874;2023-08-24T13:21:57;9.75;;;3.60;;
9449;SDS011;4763;48.370;10.874;2023-08-24T13:24:23;6.75;;;4.10;;
9449;SDS011;4763;48.370;10.874;2023-08-24T13:26:50;12.98;;;3.83;;
9449;SDS011;4763;48.370;10.874;2023-08-24T13:29:17;6.18;;;3.55;;
9449;SDS011;4763;48.370;10.874;2023-08-24T13:31:44;6.68;;;3.58;;
9449;SDS011;4763;48.370;10.874;2023-08-24T13:34:10;7.85;;;3.67;;
9449;SDS011;4763;48.370;10.874;2023-08-24T13:36:38;11.13;;;4.50;;
9449;SDS011;4763;48.370;10.874;2023-08-24T13:39:05;11.05;;;4.20;;
9449;SDS011;4763;48.370;10.874;2023-08-24T13:41:32;7.88;;;3.25;;
9449;SDS011;4763;48.370;10.874;2023-08-24T13:43:59;7.22;;;3.47;;
9449;SDS011;4763;48.370;10.874;2023-08-24T13:46:25;12.77;;;3.60;;
9449;SDS011;4763;48.370;10.874;2023-08-24T13:48:52;10.93;;;3.53;;
9449;SDS011;4763;48.370;10.874;2023-08-24T13:51:19;5.90;;;3.25;;
9449;SDS011;4763;48.370;10.874;2023-08-24T13:53:48;6.75;;;3.53;;
9449;SDS011;4763;48.370;10.874;2023-08-24T13:56:15;6.20;;;3.75;;
9449;SDS011;4763;48.370;10.874;2023-08-24T13:58:41;10.75;;;3.80;;
9449;SDS011;4763;48.370;10.874;2023-08-24T14:01:09;8.73;;;3.45;;
9449;SDS011;4763;48.370;10.874;2023-08-24T14:03:37;8.15;;;3.65;;
9449;SDS011;4763;48.370;10.874;2023-08-24T14:06:05;7.32;;;4.07;;
9449;SDS011;4763;48.370;10.874;2023-08-24T14:08:31;7.63;;;3.67;;
9449;SDS011;4763;48.370;10.874;2023-08-24T14:11:00;10.40;;;4.50;;
9449;SDS011;4763;48.370;10.874;2023-08-24T14:13:26;8.32;;;3.92;;
9449;SDS011;4763;48.370;10.874;2023-08-24T14:15:53;5.45;;;3.65;;
9449;SDS011;4763;48.370;10.874;2023-08-24T14:18:21;9.88;;;3.78;;
9449;SDS011;4763;48.370;10.874;2023-08-24T14:20:48;5.50;;;3.92;;
9449;SDS011;4763;48.370;10.874;2023-08-24T14:23:14;6.60;;;3.60;;
9449;SDS011;4763;48.370;10.874;2023-08-24T14:25:41;7.40;;;3.88;;
9449;SDS011;4763;48.370;10.874;2023-08-24T14:28:09;4.72;;;3.50;;
9449;SDS011;4763;48.370;10.874;2023-08-24T14:30:36;15.18;;;3.95;;
9449;SDS011;4763;48.370;10.874;2023-08-24T14:33:04;12.52;;;4.20;;
9449;SDS011;4763;48.370;10.874;2023-08-24T14:35:31;8.70;;;3.78;;
9449;SDS011;4763;48.370;10.874;2023-08-24T14:37:57;6.43;;;3.60;;
9449;SDS011;4763;48.370;10.874;2023-08-24T14:40:24;10.90;;;4.57;;
9449;SDS011;4763;48.370;10.874;2023-08-24T14:42:51;6.38;;;3.60;;
9449;SDS011;4763;48.370;10.874;2023-08-24T14:45:19;7.22;;;3.95;;
9449;SDS011;4763;48.370;10.874;2023-08-24T14:47:46;7.60;;;3.67;;
9449;SDS011;4763;48.370;10.874;2023-08-24T14:50:13;8.48;;;4.20;;
9449;SDS011;4763;48.370;10.874;2023-08-24T14:52:40;8.88;;;3.97;;
9449;SDS011;4763;48.370;10.874;2023-08-24T14:55:07;4.38;;;3.22;;
9449;SDS011;4763;48.370;10.874;2023-08-24T14:57:35;4.93;;;3.55;;
9449;SDS011;4763;48.370;10.874;2023-08-24T15:00:02;10.07;;;4.10;;
9449;SDS011;4763;48.370;10.874;2023-08-24T15:02:31;7.78;;;4.25;;
9449;SDS011;4763;48.370;10.874;2023-08-24T15:04:58;15.00;;;3.85;;
9449;SDS011;4763;48.370;10.874;2023-08-24T15:07:25;12.30;;;3.70;;
9449;SDS011;4763;48.370;10.874;2023-08-24T15:09:52;16.10;;;4.35;;
9449;SDS011;4763;48.370;10.874;2023-08-24T15:12:20;5.80;;;3.75;;
9449;SDS011;4763;48.370;10.874;2023-08-24T15:14:56;8.63;;;4.22;;
9449;SDS011;4763;48.370;10.874;2023-08-24T15:17:24;8.00;;;4.00;;
9449;SDS011;4763;48.370;10.874;2023-08-24T15:19:52;7.40;;;4.05;;